Time;durP1;ratioP1;P1;durP2;ratioP2;P2;SDS_P1;SDS_P2;PMS_P1;PMS_P2;Temp;Humidity;BMP_temperature;BMP_pressure;BME280_temperature;BME280_humidity;BME280_pressure;Samples;Min_cycle;Max_cycle;Signal;HPM_P1;HPM_P2
2023/03/27 00:00:44;;;;;;;6.45;1.30;;;;;;;7.95;62.45;101706.53;5088574;28;20040;-44
2023/03/27 00:03:11;;;;;;;6.00;1.10;;;;;;;7.95;62.72;101705.66;5090419;28;20116;-45
2023/03/27 00:05:37;;;;;;;4.65;0.90;;;;;;;7.80;62.78;101715.47;5087236;28;20032;-45
2023/03/27 00:08:04;;;;;;;4.20;1.20;;;;;;;7.61;63.49;101722.56;5090723;28;20024;-43
2023/03/27 00:10:31;;;;;;;5.55;0.90;;;;;;;7.54;63.36;101720.56;5085457;28;20089;-47
2023/03/27 00:12:56;;;;;;;7.13;1.15;;;;;;;7.82;62.95;101735.47;5087701;28;20047;-45
2023/03/27 00:15:22;;;;;;;6.03;1.40;;;;;;;7.78;63.07;101725.81;5090921;28;20470;-45
2023/03/27 00:17:50;;;;;;;7.25;1.33;;;;;;;7.66;63.46;101726.22;5088447;28;20036;-44
2023/03/27 00:20:20;;;;;;;3.55;1.10;;;;;;;7.86;62.97;101734.78;5092171;28;20093;-43
2023/03/27 00:22:47;;;;;;;6.70;1.35;;;;;;;7.67;63.27;101737.50;5087557;28;20055;-44
2023/03/27 00:25:12;;;;;;;5.00;1.10;;;;;;;7.76;63.15;101750.81;5092492;28;20034;-43
2023/03/27 00:27:38;;;;;;;9.68;1.40;;;;;;;7.71;63.47;101757.53;5083842;28;20040;-45
2023/03/27 00:30:05;;;;;;;9.77;1.48;;;;;;;7.59;63.76;101759.66;5086851;28;20046;-46
2023/03/27 00:32:30;;;;;;;6.97;1.50;;;;;;;7.69;63.84;101773.03;5083652;28;20032;-44
2023/03/27 00:34:56;;;;;;;5.25;1.38;;;;;;;7.62;64.19;101771.03;5086209;28;20115;-44
2023/03/27 00:37:21;;;;;;;6.38;1.00;;;;;;;7.71;63.71;101767.91;5086680;28;20039;-46
2023/03/27 00:39:49;;;;;;;9.13;1.52;;;;;;;7.67;63.54;101774.72;5084514;28;20081;-44
2023/03/27 00:42:21;;;;;;;7.13;1.30;;;;;;;7.74;63.37;101779.28;5088556;28;20401;-47
2023/03/27 00:44:53;;;;;;;5.80;1.40;;;;;;;7.54;64.03;101772.44;5084767;28;20032;-44
2023/03/27 00:47:32;;;;;;;6.63;1.40;;;;;;;7.75;63.57;101777.56;5087729;28;20571;-45
2023/03/27 00:50:01;;;;;;;5.90;1.40;;;;;;;7.73;63.67;101781.84;5087648;28;20118;-44
2023/03/27 00:52:30;;;;;;;6.78;1.40;;;;;;;7.85;63.38;101781.44;5091875;28;20055;-47
2023/03/27 00:54:58;;;;;;;9.48;1.50;;;;;;;7.85;63.81;101776.25;5084111;28;20038;-44
2023/03/27 00:57:24;;;;;;;4.78;1.30;;;;;;;7.75;63.76;101777.56;5085802;28;20123;-44
2023/03/27 00:59:51;;;;;;;4.32;1.30;;;;;;;7.91;63.70;101779.97;5082345;28;20107;-44
2023/03/27 01:02:17;;;;;;;8.35;1.50;;;;;;;8.05;63.97;101788.28;5087492;28;20028;-45
2023/03/27 01:04:44;;;;;;;8.98;1.60;;;;;;;8.03;64.40;101785.63;5083596;28;20316;-46
2023/03/27 01:07:10;;;;;;;6.18;1.27;;;;;;;7.95;65.67;101789.63;5085864;28;20494;-44
2023/03/27 01:09:36;;;;;;;8.75;1.48;;;;;;;7.90;65.27;101783.38;5082234;28;20486;-45
2023/03/27 01:12:13;;;;;;;8.35;1.50;;;;;;;7.85;65.58;101791.81;5086028;28;20034;-44
2023/03/27 01:15:05;;;;;;;7.93;1.48;;;;;;;8.03;65.08;101792.53;5082834;28;20071;-44
2023/03/27 01:18:01;;;;;;;6.63;1.50;;;;;;;8.03;64.83;101800.31;5062744;28;20046;-58
2023/03/27 01:20:55;;;;;;;6.60;1.40;;;;;;;8.14;64.01;101806.81;5088198;28;20048;-44
2023/03/27 01:23:48;;;;;;;6.90;1.45;;;;;;;8.36;63.76;101801.59;5084901;28;20564;-45
2023/03/27 01:26:44;;;;;;;7.38;1.50;;;;;;;8.13;64.33;101813.72;5085584;28;20398;-44
2023/03/27 01:29:18;;;;;;;4.57;1.30;;;;;;;7.81;65.08;101814.16;5084879;28;20032;-45
2023/03/27 01:32:06;;;;;;;7.85;1.30;;;;;;;8.01;63.90;101828.81;5083579;28;20032;-48
2023/03/27 01:34:52;;;;;;;7.63;1.08;;;;;;;7.89;62.24;101836.13;5081233;28;20123;-50
2023/03/27 01:37:37;;;;;;;3.72;1.00;;;;;;;7.73;62.15;101832.06;5084927;28;20123;-46
2023/03/27 01:40:28;;;;;;;2.60;1.10;;;;;;;7.53;62.12;101838.13;5080275;28;20493;-45
2023/03/27 01:42:58;;;;;;;2.05;0.77;;;;;;;7.48;61.52;101833.59;5080530;28;20028;-44
2023/03/27 01:45:34;;;;;;;3.47;0.80;;;;;;;7.47;59.50;101824.91;5084736;28;20481;-47
2023/03/27 01:48:07;;;;;;;4.38;0.90;;;;;;;7.38;58.76;101829.72;5083613;28;20081;-45
2023/03/27 01:50:41;;;;;;;3.85;0.90;;;;;;;7.43;59.13;101829.94;5083910;28;20039;-53
2023/03/27 01:53:14;;;;;;;4.15;0.75;;;;;;;7.49;59.67;101830.19;5089862;28;20028;-45
2023/03/27 01:55:45;;;;;;;3.47;0.98;;;;;;;7.81;59.06;101834.94;5084799;28;20035;-46
2023/03/27 01:58:16;;;;;;;2.90;0.95;;;;;;;7.71;59.76;101845.78;5087185;28;20046;-43
2023/03/27 02:00:49;;;;;;;2.25;0.80;;;;;;;7.65;59.82;101851.63;5084448;28;20100;-43
2023/03/27 02:03:21;;;;;;;4.25;0.80;;;;;;;8.01;59.47;101852.19;5087080;28;20095;-45
2023/03/27 02:05:58;;;;;;;6.55;1.00;;;;;;;7.77;60.29;101852.94;5082881;28;20036;-45
2023/03/27 02:08:36;;;;;;;5.75;0.90;;;;;;;7.65;61.12;101868.88;5089275;28;20047;-44
2023/03/27 02:11:03;;;;;;;3.85;0.85;;;;;;;7.28;62.41;101858.69;5082808;28;20047;-48
2023/03/27 02:13:39;;;;;;;3.17;0.80;;;;;;;7.61;60.15;101867.00;5082822;28;20058;-45
2023/03/27 02:16:09;;;;;;;4.38;0.70;;;;;;;7.37;59.54;101873.78;5084796;28;20028;-47
2023/03/27 02:18:40;;;;;;;2.13;0.90;;;;;;;7.18;60.14;101878.19;5080163;28;20046;-43
2023/03/27 02:21:06;;;;;;;3.65;0.93;;;;;;;7.12;60.93;101877.03;5085119;28;20040;-46
2023/03/27 02:23:32;;;;;;;2.38;0.77;;;;;;;7.02;61.72;101872.25;5079901;28;20129;-49
2023/03/27 02:25:58;;;;;;;2.22;0.80;;;;;;;7.58;60.69;101867.75;5084063;28;20024;-45
2023/03/27 02:28:28;;;;;;;4.50;0.90;;;;;;;7.60;61.38;101873.00;5084149;28;20028;-45
2023/03/27 02:30:57;;;;;;;3.05;0.95;;;;;;;7.66;61.66;101871.56;5080069;28;20032;-45
2023/03/27 02:33:55;;;;;;;3.80;0.95;;;;;;;7.63;61.86;101879.19;5084144;28;20486;-44
2023/03/27 02:36:27;;;;;;;4.05;0.98;;;;;;;7.50;61.70;101865.69;5080651;28;20036;-44
2023/03/27 02:38:58;;;;;;;2.20;0.85;;;;;;;7.65;61.44;101876.69;5080708;28;20032;-44
2023/03/27 02:41:46;;;;;;;2.65;0.90;;;;;;;7.78;60.73;101875.47;5084427;28;20390;-44
2023/03/27 02:44:30;;;;;;;3.50;0.90;;;;;;;7.42;61.42;101888.69;5080259;28;20035;-43
2023/03/27 02:47:06;;;;;;;2.97;0.73;;;;;;;7.30;61.45;101888.19;5079000;28;20060;-43
2023/03/27 02:49:41;;;;;;;2.45;0.65;;;;;;;7.03;62.30;101899.94;5078819;28;20101;-47
2023/03/27 02:52:40;;;;;;;5.30;1.02;;;;;;;7.16;62.09;101897.06;5082825;28;20119;-43
2023/03/27 02:55:19;;;;;;;4.60;0.82;;;;;;;7.18;61.95;101898.03;5079306;28;20551;-43
2023/03/27 02:57:48;;;;;;;3.13;0.70;;;;;;;7.39;61.65;101898.94;5078940;28;20036;-43
2023/03/27 03:00:27;;;;;;;4.30;0.90;;;;;;;7.16;62.16;101903.16;5082204;28;20077;-45
2023/03/27 03:03:09;;;;;;;3.05;0.93;;;;;;;7.41;61.76;101909.38;5079110;28;20062;-48
2023/03/27 03:05:37;;;;;;;2.72;0.73;;;;;;;7.34;62.21;101919.50;5078311;28;20415;-45
2023/03/27 03:08:04;;;;;;;2.58;0.80;;;;;;;7.24;63.01;101922.53;5082563;28;20051;-44
2023/03/27 03:10:30;;;;;;;4.90;0.82;;;;;;;7.30;62.99;101921.91;5079326;28;20032;-45
2023/03/27 03:12:55;;;;;;;2.97;0.90;;;;;;;6.88;64.47;101942.53;5082315;28;20024;-45
2023/03/27 03:15:20;;;;;;;5.93;1.00;;;;;;;6.99;64.65;101944.72;5082759;28;20047;-44
2023/03/27 03:17:46;;;;;;;2.58;0.73;;;;;;;6.71;65.33;101955.56;5079125;28;20082;-44
2023/03/27 03:20:12;;;;;;;4.40;1.00;;;;;;;7.26;64.46;101954.59;5082948;28;20123;-46
2023/03/27 03:22:38;;;;;;;2.95;0.95;;;;;;;7.64;63.25;101958.84;5079637;28;20043;-43
2023/03/27 03:25:05;;;;;;;3.13;0.90;;;;;;;7.61;63.26;101961.31;5081284;28;20520;-44
2023/03/27 03:27:32;;;;;;;2.90;0.80;;;;;;;7.83;62.63;101960.50;5083075;28;20064;-46
2023/03/27 03:30:01;;;;;;;6.07;0.95;;;;;;;7.98;61.83;101953.34;5086307;28;20469;-44
2023/03/27 03:32:26;;;;;;;3.55;0.90;;;;;;;7.84;62.18;101963.97;5086102;28;20662;-43
2023/03/27 03:34:52;;;;;;;3.70;0.80;;;;;;;7.77;61.86;101964.53;5082407;28;20063;-45
2023/03/27 03:37:18;;;;;;;3.38;1.10;;;;;;;7.93;61.43;101956.59;5086526;28;20028;-43
2023/03/27 03:39:44;;;;;;;2.72;0.77;;;;;;;7.66;62.59;101969.28;5082881;28;20108;-44
2023/03/27 03:42:09;;;;;;;4.13;0.77;;;;;;;7.80;61.70;101975.97;5086176;28;20490;-45
2023/03/27 03:44:36;;;;;;;7.55;1.15;;;;;;;7.95;61.01;101979.19;5082622;28;20084;-46
2023/03/27 03:47:01;;;;;;;4.28;1.10;;;;;;;7.71;61.99;101980.75;5087013;27;20028;-43
2023/03/27 03:49:27;;;;;;;5.70;0.90;;;;;;;7.77;61.49;101975.81;5086302;28;20386;-44
2023/03/27 03:51:52;;;;;;;5.07;0.90;;;;;;;7.73;61.69;101973.94;5083479;28;20036;-44
2023/03/27 03:54:17;;;;;;;3.28;1.00;;;;;;;7.63;61.39;101980.41;5089216;28;20028;-43
2023/03/27 03:56:43;;;;;;;3.72;1.00;;;;;;;7.54;61.46;101986.94;5085382;28;20099;-46
2023/03/27 03:59:10;;;;;;;3.90;0.80;;;;;;;7.44;61.89;101989.97;5087400;28;20107;-45
2023/03/27 04:01:36;;;;;;;3.88;0.73;;;;;;;7.37;62.12;101987.91;5083811;28;20028;-43
2023/03/27 04:04:02;;;;;;;3.17;0.88;;;;;;;7.28;62.36;101990.97;5086419;28;20032;-45
2023/03/27 04:06:29;;;;;;;3.45;0.70;;;;;;;7.23;62.36;101987.28;5086759;28;20402;-44
2023/03/27 04:08:55;;;;;;;3.20;0.85;;;;;;;7.19;62.85;101986.28;5092714;28;20032;-43
2023/03/27 04:11:21;;;;;;;4.43;1.05;;;;;;;7.00;64.61;101990.56;5094477;28;20024;-44
2023/03/27 04:13:46;;;;;;;4.25;1.20;;;;;;;7.04;64.54;101990.78;5085585;28;20502;-43
2023/03/27 04:16:12;;;;;;;4.82;1.40;;;;;;;6.97;65.20;101996.47;5089107;28;20032;-45
2023/03/27 04:18:39;;;;;;;4.35;1.30;;;;;;;6.95;65.76;102002.44;5084500;28;20066;-43
2023/03/27 04:21:13;;;;;;;3.90;1.40;;;;;;;6.87;66.30;102004.66;5091324;28;20032;-43
2023/03/27 04:23:38;;;;;;;6.22;1.60;;;;;;;6.93;66.68;102016.22;5088542;28;20107;-46
2023/03/27 04:26:04;;;;;;;4.40;2.17;;;;;;;6.91;67.05;102014.34;5091561;28;20059;-46
2023/03/27 04:28:33;;;;;;;6.05;1.80;;;;;;;6.98;67.10;102023.31;5088732;28;20482;-45
2023/03/27 04:31:05;;;;;;;6.53;1.75;;;;;;;6.98;67.20;102025.91;5093141;28;20024;-44
2023/03/27 04:33:33;;;;;;;6.63;1.58;;;;;;;7.01;67.31;102026.06;5088960;28;20078;-43
2023/03/27 04:35:59;;;;;;;4.20;1.58;;;;;;;7.17;67.24;102047.56;5087592;28;20032;-45
2023/03/27 04:38:26;;;;;;;4.35;1.30;;;;;;;6.98;66.93;102060.50;5089518;28;20177;-45
2023/03/27 04:40:52;;;;;;;6.22;1.40;;;;;;;6.41;66.56;102077.59;5083293;28;20127;-42
2023/03/27 04:43:18;;;;;;;8.95;1.20;;;;;;;6.76;65.28;102057.72;5087663;28;20092;-44
2023/03/27 04:45:47;;;;;;;6.32;1.30;;;;;;;6.62;64.50;102070.00;5083533;28;20028;-47
2023/03/27 04:48:13;;;;;;;8.75;1.58;;;;;;;6.83;64.62;102075.34;5085197;28;20114;-42
2023/03/27 04:50:39;;;;;;;7.55;1.40;;;;;;;6.54;64.48;102076.50;5082080;28;20035;-45
2023/03/27 04:53:05;;;;;;;5.70;1.17;;;;;;;6.46;63.96;102083.91;5086890;28;20077;-42
2023/03/27 04:55:36;;;;;;;5.97;1.20;;;;;;;6.60;63.98;102066.44;5086084;28;20032;-45
2023/03/27 04:58:05;;;;;;;5.63;1.30;;;;;;;6.48;64.43;102068.44;5088185;27;20042;-53
2023/03/27 05:00:30;;;;;;;8.18;1.25;;;;;;;6.40;63.92;102062.00;5089079;28;20028;-45
2023/03/27 05:02:56;;;;;;;4.20;1.13;;;;;;;6.74;62.65;102062.81;5081035;28;20032;-48
2023/03/27 05:05:22;;;;;;;3.60;1.20;;;;;;;6.68;62.25;102059.03;5084348;28;20040;-44
2023/03/27 05:07:48;;;;;;;7.38;1.67;;;;;;;6.83;61.51;102057.19;5081226;28;21777;-46
2023/03/27 05:10:16;;;;;;;5.28;1.40;;;;;;;6.64;62.16;102057.13;5085392;28;20024;-44
2023/03/27 05:12:46;;;;;;;7.53;1.40;;;;;;;6.72;61.63;102059.25;5081368;28;20063;-45
2023/03/27 05:15:13;;;;;;;6.80;1.60;;;;;;;6.47;61.47;102069.25;5085539;28;20278;-45
2023/03/27 05:17:40;;;;;;;11.43;1.58;;;;;;;6.37;61.88;102075.69;5084430;28;20032;-46
2023/03/27 05:20:07;;;;;;;7.25;1.40;;;;;;;6.53;60.87;102072.13;5087063;28;20032;-43
2023/03/27 05:22:33;;;;;;;4.72;1.35;;;;;;;6.64;60.37;102072.69;5081536;28;20485;-43
2023/03/27 05:24:59;;;;;;;6.00;1.20;;;;;;;6.69;60.31;102064.31;5087253;28;20433;-42
2023/03/27 05:27:25;;;;;;;7.97;2.30;;;;;;;6.49;60.85;102072.81;5085112;28;20028;-44
2023/03/27 05:29:50;;;;;;;10.38;3.75;;;;;;;6.50;61.27;102082.38;5080483;28;20078;-47
2023/03/27 05:32:15;;;;;;;7.03;2.10;;;;;;;6.82;60.74;102091.69;5084821;28;20073;-45
2023/03/27 05:34:41;;;;;;;7.65;1.70;;;;;;;6.86;61.03;102086.72;5080775;28;20521;-45
2023/03/27 05:37:06;;;;;;;4.07;1.92;;;;;;;7.05;60.37;102087.59;5075528;28;20398;-45
2023/03/27 05:39:32;;;;;;;7.00;1.63;;;;;;;7.02;60.23;102079.66;5095538;28;20043;-55
2023/03/27 05:41:57;;;;;;;8.07;1.85;;;;;;;6.87;60.93;102088.50;5085037;28;20493;-43
2023/03/27 05:44:24;;;;;;;7.38;1.80;;;;;;;6.79;62.66;102097.63;5084996;28;20542;-45
2023/03/27 05:46:49;;;;;;;9.45;2.08;;;;;;;6.63;63.83;102100.28;5080632;28;20024;-45
2023/03/27 05:49:15;;;;;;;8.90;2.50;;;;;;;6.85;63.54;102090.13;5083012;28;20089;-45
2023/03/27 05:51:40;;;;;;;10.73;2.50;;;;;;;6.67;63.31;102103.91;5080044;28;20095;-47
2023/03/27 05:54:05;;;;;;;6.32;2.20;;;;;;;6.67;63.59;102106.50;5084250;28;20035;-44
2023/03/27 05:56:31;;;;;;;6.50;2.28;;;;;;;6.58;64.35;102108.66;5080122;28;20035;-43
2023/03/27 05:58:56;;;;;;;7.72;2.83;;;;;;;6.64;63.89;102109.84;5084549;28;20481;-44
2023/03/27 06:01:22;;;;;;;7.57;2.60;;;;;;;6.41;64.75;102119.06;5085196;28;20367;-44
2023/03/27 06:03:48;;;;;;;8.05;2.30;;;;;;;6.57;64.35;102125.91;5083233;28;20039;-44
2023/03/27 06:06:14;;;;;;;7.82;2.17;;;;;;;6.64;63.80;102117.63;5091918;28;20047;-44
2023/03/27 06:08:40;;;;;;;6.95;1.70;;;;;;;6.51;63.33;102118.72;5087537;28;20028;-45
2023/03/27 06:11:14;;;;;;;8.57;1.67;;;;;;;7.02;62.24;102119.44;5084493;28;20032;-47
2023/03/27 06:13:39;;;;;;;5.00;1.48;;;;;;;7.08;61.64;102124.91;5080181;28;20544;-43
2023/03/27 06:16:05;;;;;;;6.75;1.60;;;;;;;7.00;61.15;102128.88;5083657;28;20031;-45
2023/03/27 06:18:31;;;;;;;7.68;1.42;;;;;;;7.20;60.83;102137.56;5081542;28;20031;-56
2023/03/27 06:20:57;;;;;;;7.88;1.75;;;;;;;7.00;59.70;102135.75;5082528;28;20024;-45
2023/03/27 06:23:22;;;;;;;5.05;1.40;;;;;;;7.23;57.88;102138.63;5083565;28;20497;-43
2023/03/27 06:25:48;;;;;;;8.20;1.52;;;;;;;7.43;57.51;102138.66;5079270;28;20093;-48
2023/03/27 06:28:13;;;;;;;10.43;1.70;;;;;;;7.60;56.64;102140.31;5083119;28;20028;-46
2023/03/27 06:30:39;;;;;;;7.38;1.35;;;;;;;7.84;55.35;102143.13;5079728;28;20043;-44
2023/03/27 06:33:06;;;;;;;8.68;1.80;;;;;;;7.97;54.94;102148.94;5083838;28;20032;-48
2023/03/27 06:35:32;;;;;;;5.18;1.30;;;;;;;8.44;53.23;102155.31;5080776;28;20089;-46
2023/03/27 06:37:58;;;;;;;6.78;1.17;;;;;;;8.74;53.49;102148.78;5081590;28;20036;-44
2023/03/27 06:40:26;;;;;;;6.80;1.02;;;;;;;9.95;51.55;102144.81;5083339;28;20089;-44
2023/03/27 06:43:00;;;;;;;6.97;1.13;;;;;;;10.81;48.36;102151.28;5080061;28;20136;-42
2023/03/27 06:45:48;;;;;;;6.35;1.00;;;;;;;11.80;47.11;102144.81;5082985;28;20039;-45
2023/03/27 06:48:15;;;;;;;4.82;1.02;;;;;;;12.15;44.82;102145.78;5077885;28;20062;-42
2023/03/27 06:50:41;;;;;;;10.75;1.27;;;;;;;10.80;47.18;102153.00;5079637;28;20040;-42
2023/03/27 06:53:06;;;;;;;7.32;1.00;;;;;;;9.58;50.14;102157.28;5082911;28;20239;-42
2023/03/27 06:55:32;;;;;;;6.03;1.10;;;;;;;9.56;50.13;102153.78;5079735;28;20031;-53
2023/03/27 06:58:00;;;;;;;9.02;1.35;;;;;;;9.22;49.63;102159.38;5084160;28;20036;-42
2023/03/27 07:00:28;;;;;;;3.55;0.80;;;;;;;10.70;46.15;102170.91;5086241;28;20059;-47
2023/03/27 07:02:55;;;;;;;5.15;0.95;;;;;;;11.09;45.97;102172.22;5088200;27;20486;-45
2023/03/27 07:05:22;;;;;;;5.60;0.80;;;;;;;11.13;46.12;102191.47;5089844;27;20024;-44
2023/03/27 07:07:47;;;;;;;7.88;0.73;;;;;;;9.80;48.69;102198.06;5088353;27;20036;-44
2023/03/27 07:10:13;;;;;;;9.02;0.80;;;;;;;9.48;49.89;102202.94;5089879;27;20397;-43
2023/03/27 07:12:40;;;;;;;3.33;0.80;;;;;;;8.74;51.24;102194.69;5086450;27;20051;-45
2023/03/27 07:15:06;;;;;;;3.80;0.90;;;;;;;8.81;51.61;102188.94;5088289;27;20039;-43
2023/03/27 07:17:32;;;;;;;3.08;0.70;;;;;;;8.32;53.63;102201.56;5085859;27;20490;-44
2023/03/27 07:19:58;;;;;;;4.13;0.93;;;;;;;8.41;52.62;102200.28;5089619;27;20057;-44
2023/03/27 07:22:23;;;;;;;3.88;0.80;;;;;;;8.31;52.26;102197.19;5094077;27;20032;-46
2023/03/27 07:24:49;;;;;;;8.32;1.20;;;;;;;7.71;53.73;102209.16;5094008;27;20052;-48
2023/03/27 07:27:15;;;;;;;5.50;1.00;;;;;;;7.98;53.00;102214.75;5090668;27;20106;-44
2023/03/27 07:29:41;;;;;;;4.72;1.00;;;;;;;8.15;54.40;102219.88;5085434;27;20048;-44
2023/03/27 07:32:07;;;;;;;9.02;0.80;;;;;;;8.36;53.59;102225.13;5089150;27;20055;-45
2023/03/27 07:34:32;;;;;;;7.93;1.10;;;;;;;8.79;53.43;102230.47;5086443;27;20031;-53
2023/03/27 07:36:58;;;;;;;5.28;0.80;;;;;;;8.86;51.39;102229.00;5096116;27;20157;-45
2023/03/27 07:39:24;;;;;;;10.60;1.25;;;;;;;8.64;52.84;102223.75;5095607;27;20042;-46
2023/03/27 07:41:50;;;;;;;6.63;1.10;;;;;;;8.63;54.14;102237.56;5088349;27;20064;-44
2023/03/27 07:44:16;;;;;;;9.82;1.50;;;;;;;9.13;52.70;102235.38;5091122;27;20032;-43
2023/03/27 07:46:41;;;;;;;10.73;1.13;;;;;;;8.53;55.90;102231.09;5087786;27;20032;-44
2023/03/27 07:49:08;;;;;;;7.38;1.30;;;;;;;8.47;56.20;102241.22;5076840;27;20032;-44
2023/03/27 07:51:34;;;;;;;8.18;1.48;;;;;;;8.50;55.63;102238.75;5066662;28;20397;-44
2023/03/27 07:54:03;;;;;;;9.82;1.15;;;;;;;8.81;55.22;102240.94;5069827;28;20024;-46
2023/03/27 07:56:31;;;;;;;4.78;0.95;;;;;;;8.74;54.75;102249.31;5068322;28;20034;-46
2023/03/27 07:58:56;;;;;;;7.07;1.00;;;;;;;8.17;54.39;102243.31;5074269;28;20123;-49
2023/03/27 08:01:22;;;;;;;6.00;0.93;;;;;;;8.35;53.58;102245.88;5070595;28;20772;-45
2023/03/27 08:03:48;;;;;;;4.07;1.00;;;;;;;8.41;53.93;102241.84;5065890;28;20032;-43
2023/03/27 08:06:13;;;;;;;8.07;1.05;;;;;;;9.04;52.75;102250.59;5068906;28;20031;-45
2023/03/27 08:08:38;;;;;;;8.15;1.00;;;;;;;9.50;51.83;102252.47;5060291;27;20036;-48
2023/03/27 08:11:05;;;;;;;7.38;1.00;;;;;;;9.66;52.02;102260.03;5092185;27;20024;-45
2023/03/27 08:13:30;;;;;;;3.42;0.88;;;;;;;9.44;50.97;102275.66;5083184;27;20032;-45
2023/03/27 08:16:08;;;;;;;4.72;0.80;;;;;;;8.75;50.87;102264.97;5086099;28;20517;-44
2023/03/27 08:18:35;;;;;;;2.35;0.80;;;;;;;9.30;50.26;102278.56;5079170;28;20036;-53
2023/03/27 08:21:02;;;;;;;5.68;1.00;;;;;;;9.13;51.25;102282.19;5086352;28;20064;-43
2023/03/27 08:23:29;;;;;;;6.88;1.27;;;;;;;8.73;53.13;102281.31;5085847;28;20048;-47
2023/03/27 08:25:59;;;;;;;8.95;1.10;;;;;;;8.71;53.89;102280.38;5083695;28;20024;-44
2023/03/27 08:28:26;;;;;;;5.93;1.05;;;;;;;9.03;52.39;102289.53;5087653;28;20032;-44
2023/03/27 08:30:51;;;;;;;4.70;0.77;;;;;;;9.17;52.42;102284.09;5084003;28;20051;-43
2023/03/27 08:33:18;;;;;;;6.32;1.08;;;;;;;9.69;51.84;102275.78;5087430;28;20474;-44
2023/03/27 08:35:46;;;;;;;6.22;0.90;;;;;;;9.31;50.75;102287.28;5082416;28;20039;-42
2023/03/27 08:38:12;;;;;;;8.35;1.10;;;;;;;10.13;49.07;102285.28;5088316;28;20039;-46
2023/03/27 08:40:39;;;;;;;3.50;0.90;;;;;;;9.30;47.76;102288.09;5088026;28;20040;-43
2023/03/27 08:43:12;;;;;;;5.47;1.10;;;;;;;8.78;50.04;102296.28;5092090;28;20032;-46
2023/03/27 08:45:45;;;;;;;4.25;0.80;;;;;;;9.40;49.46;102290.22;5088054;28;20039;-46
2023/03/27 08:48:16;;;;;;;3.80;1.00;;;;;;;8.68;49.10;102298.44;5083808;28;20383;-46
2023/03/27 08:50:51;;;;;;;6.30;1.10;;;;;;;9.38;49.33;102297.13;5047971;28;20071;-43
2023/03/27 08:53:35;;;;;;;5.50;0.90;;;;;;;9.65;49.65;102297.31;5045330;28;20033;-46
2023/03/27 08:56:02;;;;;;;8.33;1.13;;;;;;;9.53;50.57;102308.13;5040771;28;20033;-47
2023/03/27 08:58:28;;;;;;;7.57;1.48;;;;;;;9.55;50.63;102316.91;5058099;28;20267;-44
2023/03/27 09:01:06;;;;;;;7.80;0.93;;;;;;;9.58;50.31;102319.59;5060665;28;20029;-47
2023/03/27 09:03:43;;;;;;;6.60;1.27;;;;;;;9.75;49.05;102328.13;5060991;28;20044;-49
2023/03/27 09:06:51;;;;;;;7.78;1.35;;;;;;;9.23;52.21;102348.50;5068610;28;20032;-43
2023/03/27 09:09:28;;;;;;;4.07;0.93;;;;;;;9.06;55.86;102362.53;5059487;28;20362;-44
2023/03/27 09:11:59;;;;;;;5.38;1.00;;;;;;;9.38;54.87;102362.19;5060170;28;20036;-44
2023/03/27 09:14:35;;;;;;;5.43;0.90;;;;;;;8.95;55.16;102380.28;5064768;28;20033;-44
2023/03/27 09:17:35;;;;;;;6.85;1.00;;;;;;;9.10;57.17;102374.81;5060742;28;20135;-44
2023/03/27 09:20:22;;;;;;;4.70;1.00;;;;;;;9.44;54.24;102374.56;5064520;28;20398;-45
2023/03/27 09:22:53;;;;;;;4.82;1.17;;;;;;;9.33;53.61;102374.97;5060473;28;20121;-44
2023/03/27 09:25:22;;;;;;;5.50;1.42;;;;;;;9.57;53.76;102384.66;5064248;28;20024;-45
2023/03/27 09:27:48;;;;;;;5.78;1.27;;;;;;;8.95;56.92;102386.38;5062672;28;20040;-43
2023/03/27 09:30:36;;;;;;;4.15;0.90;;;;;;;9.20;56.68;102377.91;5064492;28;20025;-44
2023/03/27 09:33:04;;;;;;;5.15;1.00;;;;;;;9.45;55.82;102374.63;5059960;28;20161;-44
2023/03/27 09:35:31;;;;;;;5.53;1.00;;;;;;;9.57;56.16;102369.03;5058568;28;20602;-44
2023/03/27 09:38:02;;;;;;;3.85;0.90;;;;;;;9.66;55.10;102379.81;5062844;28;20056;-44
2023/03/27 09:40:48;;;;;;;6.40;1.13;;;;;;;9.87;53.69;102379.81;5044301;28;20044;-57
2023/03/27 09:43:20;;;;;;;5.72;0.95;;;;;;;10.08;53.22;102375.44;5061660;28;20564;-45
2023/03/27 09:45:48;;;;;;;6.28;0.93;;;;;;;9.59;53.97;102381.28;5042844;28;20033;-45
2023/03/27 09:48:27;;;;;;;5.30;1.10;;;;;;;9.27;54.94;102387.72;5064289;28;20029;-42
2023/03/27 09:50:52;;;;;;;6.00;1.30;;;;;;;9.71;54.65;102375.69;5060021;28;21520;-44
2023/03/27 09:53:21;;;;;;;6.93;1.20;;;;;;;9.73;53.71;102377.53;5063644;28;20398;-45
2023/03/27 09:56:13;;;;;;;5.68;1.05;;;;;;;9.44;54.19;102385.88;5059476;28;20060;-42
2023/03/27 09:58:42;;;;;;;6.68;1.00;;;;;;;9.32;54.72;102387.94;5059776;28;20056;-47
2023/03/27 10:01:18;;;;;;;6.75;1.23;;;;;;;8.81;54.90;102392.66;5064809;28;20028;-47
2023/03/27 10:03:52;;;;;;;4.72;1.27;;;;;;;8.94;53.09;102387.19;5060675;28;20518;-44
2023/03/27 10:06:29;;;;;;;4.90;0.90;;;;;;;8.79;52.16;102383.88;5063214;28;20032;-44
2023/03/27 10:08:59;;;;;;;4.65;1.30;;;;;;;9.22;51.39;102381.44;5059952;28;20302;-46
2023/03/27 10:11:30;;;;;;;8.13;1.05;;;;;;;9.70;50.04;102374.78;5063381;28;20496;-43
2023/03/27 10:13:58;;;;;;;8.30;1.05;;;;;;;9.77;50.65;102386.34;5059620;28;20494;-42
2023/03/27 10:16:24;;;;;;;8.13;1.33;;;;;;;9.33;54.31;102403.59;5062556;28;20036;-44
2023/03/27 10:18:54;;;;;;;7.20;1.10;;;;;;;9.80;52.14;102407.31;5059036;28;20509;-44
2023/03/27 10:21:41;;;;;;;9.73;1.65;;;;;;;9.73;51.12;102405.28;5062733;28;20509;-43
2023/03/27 10:24:15;;;;;;;6.53;0.90;;;;;;;9.63;50.44;102403.16;5058549;28;20031;-46
2023/03/27 10:26:41;;;;;;;3.83;0.80;;;;;;;9.91;47.46;102403.44;5060144;28;20151;-44
2023/03/27 10:29:31;;;;;;;3.92;0.80;;;;;;;9.22;46.22;102410.06;5065459;28;20029;-45
2023/03/27 10:31:59;;;;;;;5.35;1.00;;;;;;;9.55;46.52;102413.22;5062905;28;20059;-43
2023/03/27 10:34:35;;;;;;;5.05;0.90;;;;;;;9.54;48.49;102416.66;5065606;28;20033;-43
2023/03/27 10:37:03;;;;;;;3.13;0.60;;;;;;;8.66;47.28;102420.56;5060198;28;20036;-44
2023/03/27 10:39:34;;;;;;;4.90;0.75;;;;;;;9.23;47.00;102419.66;5060082;28;20028;-50
2023/03/27 10:42:06;;;;;;;6.60;0.80;;;;;;;9.38;46.31;102421.16;5062967;28;20145;-48
2023/03/27 10:44:36;;;;;;;5.20;0.90;;;;;;;9.56;46.34;102427.13;5059259;28;20033;-46
2023/03/27 10:47:02;;;;;;;4.65;0.80;;;;;;;9.72;46.21;102433.03;5062933;28;20021;-44
2023/03/27 10:49:45;;;;;;;2.38;0.60;;;;;;;9.49;45.46;102433.81;5063415;28;20642;-59
2023/03/27 10:52:25;;;;;;;5.65;1.02;;;;;;;9.42;47.04;102434.34;5060365;28;20036;-46
2023/03/27 10:55:20;;;;;;;8.57;1.10;;;;;;;9.99;47.81;102435.00;5059047;28;20032;-45
2023/03/27 10:57:52;;;;;;;5.35;0.93;;;;;;;9.47;49.42;102437.16;5060048;28;20051;-44
2023/03/27 11:00:31;;;;;;;5.93;0.90;;;;;;;9.75;47.35;102429.69;5063724;28;20452;-46
2023/03/27 11:03:02;;;;;;;4.88;0.85;;;;;;;10.03;47.69;102443.00;5059217;28;20033;-45
2023/03/27 11:05:36;;;;;;;3.70;0.80;;;;;;;9.47;49.02;102445.84;5061880;28;20040;-44
2023/03/27 11:08:15;;;;;;;8.18;0.90;;;;;;;9.48;48.82;102444.13;5057860;28;20036;-44
2023/03/27 11:10:43;;;;;;;7.10;1.10;;;;;;;9.17;50.32;102452.31;5060248;28;20036;-43
2023/03/27 11:13:26;;;;;;;3.25;0.90;;;;;;;9.14;47.78;102453.09;5065486;28;20466;-43
2023/03/27 11:16:40;;;;;;;8.48;1.05;;;;;;;9.61;47.01;102455.16;5059262;28;20040;-47
2023/03/27 11:19:42;;;;;;;8.35;0.98;;;;;;;9.61;48.41;102459.47;5037068;28;20037;-47
2023/03/27 11:22:15;;;;;;;5.35;0.90;;;;;;;10.55;45.76;102459.00;5054315;28;20033;-47
2023/03/27 11:24:46;;;;;;;5.22;0.85;;;;;;;10.16;47.80;102460.03;5046576;28;20048;-43
2023/03/27 11:27:38;;;;;;;6.53;1.10;;;;;;;10.14;49.33;102466.88;5042583;28;20089;-46
2023/03/27 11:30:07;;;;;;;9.05;1.30;;;;;;;9.60;47.23;102468.09;5057955;28;20093;-43
2023/03/27 11:32:53;;;;;;;8.63;1.20;;;;;;;9.68;50.73;102478.03;5058006;28;20406;-46
2023/03/27 11:35:23;;;;;;;7.57;1.05;;;;;;;10.31;50.63;102473.69;5061506;28;20601;-44
2023/03/27 11:37:58;;;;;;;7.57;1.48;;;;;;;10.65;50.70;102478.53;5084433;22;20060;-45
2023/03/27 11:40:29;;;;;;;6.35;1.30;;;;;;;10.65;48.73;102477.63;5086850;28;20097;-42
2023/03/27 11:42:55;;;;;;;5.30;1.10;;;;;;;10.04;44.73;102470.84;5083154;28;20028;-42
2023/03/27 11:45:26;;;;;;;4.53;1.08;;;;;;;10.52;44.97;102463.22;5086419;28;20035;-42
2023/03/27 11:48:13;;;;;;;6.53;0.98;;;;;;;10.48;44.98;102466.56;5090340;28;20100;-41